Time;durP1;ratioP1;P1;durP2;ratioP2;P2;SDS_P1;SDS_P2;PMS_P1;PMS_P2;Temp;Humidity;BMP_temperature;BMP_pressure;BME280_temperature;BME280_humidity;BME280_pressure;Samples;Min_cycle;Max_cycle;Signal;HPM_P1;HPM_P2
2021/09/16 00:01:55;;;;;;;106.43;32.65;;;;;;;;;;5053121;28;20033;-76
2021/09/16 00:04:20;;;;;;;127.18;33.70;;;;;;;;;;5053147;28;20463;-76
2021/09/16 00:06:46;;;;;;;97.53;32.90;;;;;;;;;;5055956;28;20458;-76
2021/09/16 00:09:11;;;;;;;110.50;36.63;;;;;;;;;;5057437;28;20533;-75
2021/09/16 00:11:36;;;;;;;129.20;36.42;;;;;;;;;;5056834;28;20031;-75
2021/09/16 00:14:02;;;;;;;116.70;34.72;;;;;;;;;;5057432;28;20029;-76
2021/09/16 00:16:27;;;;;;;92.00;30.13;;;;;;;;;;5057117;28;20029;-75
2021/09/16 00:18:52;;;;;;;111.93;34.47;;;;;;;;;;5057105;28;20074;-75
2021/09/16 00:21:18;;;;;;;212.05;54.85;;;;;;;;;;5057102;28;20028;-75
2021/09/16 00:23:44;;;;;;;125.30;35.78;;;;;;;;;;5057033;28;20041;-75
2021/09/16 00:26:09;;;;;;;137.30;35.45;;;;;;;;;;5056852;28;20029;-76
2021/09/16 00:28:35;;;;;;;118.13;35.10;;;;;;;;;;5056885;28;20029;-75
2021/09/16 00:31:00;;;;;;;145.60;34.05;;;;;;;;;;5056882;28;20036;-75
2021/09/16 00:33:25;;;;;;;130.43;34.08;;;;;;;;;;5056733;28;20052;-76
2021/09/16 00:35:50;;;;;;;101.47;31.67;;;;;;;;;;5056395;28;20108;-75
2021/09/16 00:38:16;;;;;;;117.75;34.17;;;;;;;;;;5056698;28;20036;-75
2021/09/16 00:40:41;;;;;;;182.13;39.17;;;;;;;;;;5056788;28;20096;-75
2021/09/16 00:43:06;;;;;;;229.95;44.88;;;;;;;;;;5056613;28;20029;-75
2021/09/16 00:45:31;;;;;;;185.40;51.20;;;;;;;;;;5056567;28;20037;-75
2021/09/16 00:47:57;;;;;;;180.05;47.72;;;;;;;;;;5056593;28;20031;-75
2021/09/16 00:50:23;;;;;;;173.73;38.63;;;;;;;;;;5056542;28;20029;-75
2021/09/16 00:52:49;;;;;;;196.05;39.90;;;;;;;;;;5055047;28;20389;-77
2021/09/16 00:55:15;;;;;;;137.93;35.90;;;;;;;;;;5056474;28;20075;-75
2021/09/16 00:57:43;;;;;;;114.05;33.88;;;;;;;;;;5056595;28;20074;-75
2021/09/16 01:00:09;;;;;;;155.90;37.97;;;;;;;;;;5056283;28;20029;-75
2021/09/16 01:02:34;;;;;;;169.52;38.28;;;;;;;;;;5056426;28;20032;-75
2021/09/16 01:05:00;;;;;;;136.27;35.65;;;;;;;;;;5055821;28;20045;-75
2021/09/16 01:07:25;;;;;;;117.25;32.55;;;;;;;;;;5056266;28;20123;-75
2021/09/16 01:09:50;;;;;;;135.50;34.13;;;;;;;;;;5056052;28;20036;-75
2021/09/16 01:12:16;;;;;;;157.65;38.00;;;;;;;;;;5051671;28;20056;-76
2021/09/16 01:14:41;;;;;;;139.88;36.63;;;;;;;;;;5055168;28;20047;-75
2021/09/16 01:17:06;;;;;;;126.97;34.53;;;;;;;;;;5054673;28;20020;-75
2021/09/16 01:19:32;;;;;;;127.32;33.40;;;;;;;;;;5054581;28;20036;-77
2021/09/16 01:21:57;;;;;;;125.53;35.85;;;;;;;;;;5051939;28;20037;-76
2021/09/16 01:24:23;;;;;;;173.65;37.97;;;;;;;;;;5055416;28;20021;-76
2021/09/16 01:26:48;;;;;;;107.55;31.88;;;;;;;;;;5054785;28;20453;-75
2021/09/16 01:29:14;;;;;;;158.05;35.63;;;;;;;;;;5055352;28;20141;-76
2021/09/16 01:31:40;;;;;;;173.43;37.60;;;;;;;;;;5055529;28;20032;-75
2021/09/16 01:34:07;;;;;;;155.05;51.38;;;;;;;;;;5055784;28;20087;-76
2021/09/16 01:36:33;;;;;;;111.22;33.53;;;;;;;;;;5055734;28;20090;-76
2021/09/16 01:38:58;;;;;;;116.75;34.17;;;;;;;;;;5055690;28;20458;-75
2021/09/16 01:41:24;;;;;;;125.80;33.40;;;;;;;;;;5055163;28;20037;-76
2021/09/16 01:43:49;;;;;;;102.97;32.08;;;;;;;;;;5055712;28;20036;-76
2021/09/16 01:46:14;;;;;;;110.18;31.85;;;;;;;;;;5055488;28;20458;-75
2021/09/16 01:48:39;;;;;;;88.47;29.30;;;;;;;;;;5055485;28;20033;-75
2021/09/16 01:51:05;;;;;;;104.47;31.45;;;;;;;;;;5055306;28;20127;-75
2021/09/16 01:53:30;;;;;;;127.10;32.97;;;;;;;;;;5055282;28;20355;-76
2021/09/16 01:55:55;;;;;;;148.88;33.90;;;;;;;;;;5055139;28;20029;-76
2021/09/16 01:58:20;;;;;;;157.40;35.67;;;;;;;;;;5055600;28;20101;-75
2021/09/16 02:00:46;;;;;;;116.00;33.40;;;;;;;;;;5053700;28;20044;-75
2021/09/16 02:03:11;;;;;;;108.70;35.20;;;;;;;;;;5054935;28;20032;-75
2021/09/16 02:05:36;;;;;;;88.00;29.77;;;;;;;;;;5055062;28;20056;-75
2021/09/16 02:08:02;;;;;;;97.47;29.17;;;;;;;;;;5054997;28;20017;-75
2021/09/16 02:10:27;;;;;;;105.72;31.85;;;;;;;;;;5054949;28;20029;-75
2021/09/16 02:12:52;;;;;;;103.38;31.05;;;;;;;;;;5054882;28;20029;-76
2021/09/16 02:15:18;;;;;;;137.88;33.50;;;;;;;;;;5054980;28;20462;-76
2021/09/16 02:17:43;;;;;;;128.95;31.52;;;;;;;;;;5054884;28;20041;-75
2021/09/16 02:20:08;;;;;;;101.57;30.85;;;;;;;;;;5054758;28;20028;-75
2021/09/16 02:22:33;;;;;;;126.10;32.38;;;;;;;;;;5054716;28;20469;-75
2021/09/16 02:24:59;;;;;;;140.30;33.05;;;;;;;;;;5054238;28;20041;-75
2021/09/16 02:27:24;;;;;;;88.25;28.50;;;;;;;;;;5054425;28;20036;-75
2021/09/16 02:29:49;;;;;;;87.65;28.40;;;;;;;;;;5054593;28;20017;-76
2021/09/16 02:32:14;;;;;;;92.68;28.48;;;;;;;;;;5054509;28;20084;-76
2021/09/16 02:34:40;;;;;;;105.10;37.17;;;;;;;;;;5054498;28;20491;-75
2021/09/16 02:37:05;;;;;;;99.95;33.75;;;;;;;;;;5054366;28;20021;-75
2021/09/16 02:39:30;;;;;;;83.28;28.98;;;;;;;;;;5054487;28;20693;-75
2021/09/16 02:41:55;;;;;;;123.95;32.47;;;;;;;;;;5054481;28;20469;-75
2021/09/16 02:44:21;;;;;;;107.50;30.33;;;;;;;;;;5054057;28;20029;-75
2021/09/16 02:46:46;;;;;;;64.95;25.63;;;;;;;;;;5052955;28;20029;-75
2021/09/16 02:49:11;;;;;;;93.03;29.92;;;;;;;;;;5054630;28;20048;-75
2021/09/16 02:51:37;;;;;;;93.07;31.10;;;;;;;;;;5054245;28;20092;-76
2021/09/16 02:54:02;;;;;;;97.57;30.73;;;;;;;;;;5054155;28;20033;-75
2021/09/16 02:56:27;;;;;;;103.03;31.88;;;;;;;;;;5054185;28;20448;-76
2021/09/16 02:58:52;;;;;;;112.22;37.90;;;;;;;;;;5054098;28;20021;-75
2021/09/16 03:01:18;;;;;;;144.80;50.60;;;;;;;;;;5054032;28;20381;-75
2021/09/16 03:03:43;;;;;;;134.38;41.22;;;;;;;;;;5053924;28;20041;-75
2021/09/16 03:06:08;;;;;;;100.63;36.55;;;;;;;;;;5053589;28;20028;-75
2021/09/16 03:08:33;;;;;;;91.35;35.95;;;;;;;;;;5053568;28;20111;-75
2021/09/16 03:10:59;;;;;;;158.50;44.60;;;;;;;;;;5053809;28;20036;-75
2021/09/16 03:13:24;;;;;;;152.88;41.38;;;;;;;;;;5053772;28;20098;-76
2021/09/16 03:15:49;;;;;;;119.97;37.15;;;;;;;;;;5053808;28;20096;-76
2021/09/16 03:18:14;;;;;;;127.75;39.35;;;;;;;;;;5053403;28;20362;-75
2021/09/16 03:20:40;;;;;;;90.07;31.27;;;;;;;;;;5053739;28;20027;-75
2021/09/16 03:23:05;;;;;;;111.03;35.47;;;;;;;;;;5053716;28;20443;-75
2021/09/16 03:25:30;;;;;;;132.27;34.80;;;;;;;;;;5053044;28;20059;-76
2021/09/16 03:27:55;;;;;;;100.60;29.23;;;;;;;;;;5053537;28;20048;-75
2021/09/16 03:30:21;;;;;;;115.68;30.45;;;;;;;;;;5053206;28;20063;-75
2021/09/16 03:32:46;;;;;;;114.32;29.80;;;;;;;;;;5053382;28;20131;-77
2021/09/16 03:35:12;;;;;;;93.22;28.13;;;;;;;;;;5053131;28;20031;-76
2021/09/16 03:37:37;;;;;;;63.50;22.67;;;;;;;;;;5053571;28;20051;-75
2021/09/16 03:40:03;;;;;;;91.40;28.08;;;;;;;;;;5052746;28;20072;-75
2021/09/16 03:42:31;;;;;;;78.20;25.75;;;;;;;;;;5053361;28;20025;-77
2021/09/16 03:44:56;;;;;;;92.70;26.88;;;;;;;;;;5053248;28;20083;-76
2021/09/16 03:47:21;;;;;;;100.88;29.92;;;;;;;;;;5053340;28;20064;-75
2021/09/16 03:49:47;;;;;;;96.22;27.80;;;;;;;;;;5053552;28;20056;-76
2021/09/16 03:52:12;;;;;;;100.18;28.02;;;;;;;;;;5053429;28;20078;-76
2021/09/16 03:54:38;;;;;;;107.35;29.33;;;;;;;;;;5053022;28;20040;-75
2021/09/16 03:57:03;;;;;;;72.25;26.10;;;;;;;;;;5053153;28;20016;-75
2021/09/16 03:59:29;;;;;;;72.50;24.42;;;;;;;;;;5053412;28;20559;-75
2021/09/16 04:01:54;;;;;;;93.35;27.30;;;;;;;;;;5051838;28;20082;-76
2021/09/16 04:04:20;;;;;;;77.03;26.02;;;;;;;;;;5053195;28;20480;-76
2021/09/16 04:06:46;;;;;;;77.25;26.00;;;;;;;;;;5053344;28;20037;-75
2021/09/16 04:09:11;;;;;;;128.48;30.17;;;;;;;;;;5052796;28;20108;-76
2021/09/16 04:11:36;;;;;;;84.32;26.58;;;;;;;;;;5053201;28;20028;-75
2021/09/16 04:14:01;;;;;;;82.25;25.17;;;;;;;;;;5051825;28;20428;-76
2021/09/16 04:16:27;;;;;;;134.18;31.02;;;;;;;;;;5053119;28;20112;-75
2021/09/16 04:18:52;;;;;;;129.60;30.50;;;;;;;;;;5052969;28;20066;-77
2021/09/16 04:21:18;;;;;;;99.20;27.73;;;;;;;;;;5053056;28;20032;-75
2021/09/16 04:23:43;;;;;;;65.80;24.60;;;;;;;;;;5045598;28;20032;-75
2021/09/16 04:26:08;;;;;;;132.73;32.95;;;;;;;;;;5052593;28;20039;-75
2021/09/16 04:28:34;;;;;;;110.35;28.20;;;;;;;;;;5052327;28;20033;-75
2021/09/16 04:30:59;;;;;;;96.28;26.85;;;;;;;;;;5052544;28;20025;-75
2021/09/16 04:33:24;;;;;;;116.72;30.88;;;;;;;;;;5052575;28;20049;-75
2021/09/16 04:35:49;;;;;;;98.38;26.67;;;;;;;;;;5053124;28;20108;-75
2021/09/16 04:38:15;;;;;;;94.07;26.55;;;;;;;;;;5052552;28;20082;-75
2021/09/16 04:40:41;;;;;;;108.05;27.77;;;;;;;;;;5052844;28;20016;-75
2021/09/16 04:43:06;;;;;;;85.15;24.65;;;;;;;;;;5052801;28;20114;-75
2021/09/16 04:45:31;;;;;;;92.90;26.90;;;;;;;;;;5052698;28;20044;-76
2021/09/16 04:47:57;;;;;;;92.32;25.45;;;;;;;;;;5052736;28;20026;-75
2021/09/16 04:50:22;;;;;;;53.03;20.90;;;;;;;;;;5052754;28;20031;-75
2021/09/16 04:52:47;;;;;;;110.55;29.02;;;;;;;;;;5056404;28;20037;-76
2021/09/16 04:55:12;;;;;;;92.90;26.15;;;;;;;;;;5056121;28;20029;-75
2021/09/16 04:57:39;;;;;;;85.63;26.20;;;;;;;;;;5056479;28;20025;-75
2021/09/16 05:00:05;;;;;;;82.10;23.88;;;;;;;;;;5056411;28;20039;-75
2021/09/16 05:02:30;;;;;;;93.85;27.02;;;;;;;;;;5056474;28;20017;-75
2021/09/16 05:04:55;;;;;;;109.35;26.38;;;;;;;;;;5056186;28;20390;-75
2021/09/16 05:07:22;;;;;;;108.28;39.67;;;;;;;;;;5056598;28;20389;-76
2021/09/16 05:09:47;;;;;;;113.38;41.13;;;;;;;;;;5056103;28;20013;-75
2021/09/16 05:12:12;;;;;;;101.65;32.78;;;;;;;;;;5056122;28;20033;-75
2021/09/16 05:14:37;;;;;;;97.75;36.22;;;;;;;;;;5055999;28;20454;-75
2021/09/16 05:17:03;;;;;;;85.63;25.77;;;;;;;;;;5056315;28;20017;-75
2021/09/16 05:19:28;;;;;;;65.15;23.85;;;;;;;;;;5055626;28;20033;-76
2021/09/16 05:21:53;;;;;;;80.57;25.70;;;;;;;;;;5055906;28;20071;-75
2021/09/16 05:24:19;;;;;;;88.80;31.48;;;;;;;;;;5055843;28;20021;-75
2021/09/16 05:26:44;;;;;;;81.00;25.15;;;;;;;;;;5055766;28;20028;-75
2021/09/16 05:29:10;;;;;;;70.80;24.17;;;;;;;;;;5055724;28;20036;-75
2021/09/16 05:31:35;;;;;;;91.78;27.92;;;;;;;;;;5055919;28;20373;-75
2021/09/16 05:34:01;;;;;;;69.05;23.67;;;;;;;;;;5055864;28;20529;-75
2021/09/16 05:36:26;;;;;;;96.25;28.08;;;;;;;;;;5056010;28;20033;-75
2021/09/16 05:38:51;;;;;;;90.40;26.75;;;;;;;;;;5055882;28;20029;-75
2021/09/16 05:41:16;;;;;;;77.10;24.42;;;;;;;;;;5055563;28;20433;-75
2021/09/16 05:43:42;;;;;;;82.93;25.90;;;;;;;;;;5055611;28;20060;-75
2021/09/16 05:46:07;;;;;;;105.80;27.70;;;;;;;;;;5055331;28;20428;-75
2021/09/16 05:48:32;;;;;;;101.97;26.58;;;;;;;;;;5054425;28;20149;-75
2021/09/16 05:50:57;;;;;;;63.95;23.33;;;;;;;;;;5055318;28;20450;-75
2021/09/16 05:53:23;;;;;;;99.47;27.50;;;;;;;;;;5055323;28;20120;-75
2021/09/16 05:55:48;;;;;;;80.72;24.65;;;;;;;;;;5055646;28;20033;-75
2021/09/16 05:58:13;;;;;;;84.18;25.50;;;;;;;;;;5054902;28;20043;-75
2021/09/16 06:00:39;;;;;;;66.72;23.10;;;;;;;;;;5055178;28;20050;-75
2021/09/16 06:03:04;;;;;;;71.70;24.23;;;;;;;;;;5054477;28;20029;-75
2021/09/16 06:05:29;;;;;;;108.75;28.02;;;;;;;;;;5055058;28;20114;-75
2021/09/16 06:07:54;;;;;;;87.05;25.52;;;;;;;;;;5055149;28;20347;-75
2021/09/16 06:10:20;;;;;;;77.45;25.08;;;;;;;;;;5054980;28;20485;-76
2021/09/16 06:12:45;;;;;;;85.07;26.08;;;;;;;;;;5054792;28;20033;-75
2021/09/16 06:15:11;;;;;;;87.57;25.30;;;;;;;;;;5054903;28;20071;-75
2021/09/16 06:17:36;;;;;;;79.30;23.88;;;;;;;;;;5054838;28;20373;-75
2021/09/16 06:20:02;;;;;;;65.68;22.88;;;;;;;;;;5054893;28;20043;-75
2021/09/16 06:22:27;;;;;;;46.35;20.42;;;;;;;;;;5054809;28;20078;-75
2021/09/16 06:24:53;;;;;;;83.10;24.23;;;;;;;;;;5054750;28;20052;-75
2021/09/16 06:27:19;;;;;;;70.18;22.27;;;;;;;;;;5054498;28;20108;-76
2021/09/16 06:29:44;;;;;;;90.30;22.55;;;;;;;;;;5054595;28;20051;-75
2021/09/16 06:32:09;;;;;;;51.33;15.95;;;;;;;;;;5054462;28;20132;-76
2021/09/16 06:34:35;;;;;;;206.43;30.13;;;;;;;;;;5054620;28;20037;-76
2021/09/16 06:37:00;;;;;;;662.05;70.47;;;;;;;;;;5054401;28;20537;-76
2021/09/16 06:39:25;;;;;;;72.18;17.10;;;;;;;;;;5054525;28;20493;-76
2021/09/16 06:41:51;;;;;;;45.15;15.45;;;;;;;;;;5054482;28;20466;-76
2021/09/16 06:44:16;;;;;;;21.15;10.90;;;;;;;;;;5054314;28;20753;-76
2021/09/16 06:46:41;;;;;;;25.00;13.18;;;;;;;;;;5054384;28;20112;-77
2021/09/16 06:49:07;;;;;;;24.67;12.60;;;;;;;;;;5054274;28;20453;-76
2021/09/16 06:51:32;;;;;;;22.77;11.10;;;;;;;;;;5054553;28;20060;-76
2021/09/16 06:53:58;;;;;;;24.75;10.70;;;;;;;;;;5054175;28;20110;-78
2021/09/16 06:56:23;;;;;;;22.40;11.82;;;;;;;;;;5054197;28;20138;-76
2021/09/16 06:58:48;;;;;;;23.77;12.32;;;;;;;;;;5054104;28;20475;-76
2021/09/16 07:01:14;;;;;;;24.30;11.05;;;;;;;;;;5053874;28;20029;-76
2021/09/16 07:03:39;;;;;;;22.23;11.00;;;;;;;;;;5054010;28;20060;-76
2021/09/16 07:06:04;;;;;;;18.83;9.20;;;;;;;;;;5053844;28;20036;-76
2021/09/16 07:08:29;;;;;;;12.60;8.52;;;;;;;;;;5053932;28;20056;-77
2021/09/16 07:10:55;;;;;;;11.40;7.70;;;;;;;;;;5053969;28;20466;-76
2021/09/16 07:13:20;;;;;;;11.68;6.97;;;;;;;;;;5053822;28;20031;-76
2021/09/16 07:15:45;;;;;;;9.13;6.18;;;;;;;;;;5053030;28;20025;-76
2021/09/16 07:18:11;;;;;;;11.35;6.50;;;;;;;;;;5054027;28;20060;-76
2021/09/16 07:20:36;;;;;;;13.60;7.25;;;;;;;;;;5053785;28;20426;-76
2021/09/16 07:23:01;;;;;;;14.55;5.32;;;;;;;;;;5053593;28;20087;-76
2021/09/16 07:25:27;;;;;;;8.02;5.95;;;;;;;;;;5049699;28;20033;-81
2021/09/16 07:27:52;;;;;;;10.55;5.85;;;;;;;;;;5049508;28;20370;-78
2021/09/16 07:30:17;;;;;;;11.85;4.97;;;;;;;;;;5051552;28;20033;-76
2021/09/16 07:32:43;;;;;;;9.40;5.35;;;;;;;;;;5052558;28;20056;-77
2021/09/16 07:35:08;;;;;;;9.88;5.50;;;;;;;;;;5053253;28;20025;-76
2021/09/16 07:37:34;;;;;;;6.95;5.18;;;;;;;;;;5053355;28;20036;-76
2021/09/16 07:40:00;;;;;;;14.98;5.82;;;;;;;;;;5053432;28;20036;-76
2021/09/16 07:42:26;;;;;;;9.60;5.80;;;;;;;;;;5053403;28;20021;-77
2021/09/16 07:44:51;;;;;;;11.48;6.63;;;;;;;;;;5042017;28;20049;-76
2021/09/16 07:47:16;;;;;;;11.90;5.57;;;;;;;;;;5053291;28;20063;-76
2021/09/16 07:49:41;;;;;;;7.70;5.32;;;;;;;;;;5053472;28;20043;-76
2021/09/16 07:52:07;;;;;;;9.93;5.40;;;;;;;;;;5053293;28;20063;-76
2021/09/16 07:54:32;;;;;;;11.57;5.53;;;;;;;;;;5051857;28;20477;-77
2021/09/16 07:56:57;;;;;;;10.13;5.38;;;;;;;;;;5053147;28;20021;-76
2021/09/16 07:59:23;;;;;;;8.40;4.88;;;;;;;;;;5052447;28;20067;-76
2021/09/16 08:01:48;;;;;;;6.78;4.90;;;;;;;;;;5052015;28;20029;-76
2021/09/16 08:04:13;;;;;;;10.55;5.00;;;;;;;;;;5052249;28;20103;-77
2021/09/16 08:06:39;;;;;;;9.85;4.93;;;;;;;;;;5043855;28;20029;-77
2021/09/16 08:09:04;;;;;;;6.65;4.43;;;;;;;;;;5051285;28;20489;-77
2021/09/16 08:11:29;;;;;;;10.30;4.85;;;;;;;;;;5052409;28;20054;-77
2021/09/16 08:13:55;;;;;;;8.13;4.60;;;;;;;;;;5051764;28;20025;-78
2021/09/16 08:16:25;;;;;;;7.35;4.63;;;;;;;;;;5050158;28;20029;-78
2021/09/16 08:18:50;;;;;;;11.77;5.20;;;;;;;;;;5050919;28;20010;-78
2021/09/16 08:21:17;;;;;;;8.50;4.75;;;;;;;;;;5050782;28;20060;-79
2021/09/16 08:23:43;;;;;;;7.20;5.85;;;;;;;;;;5050830;28;20493;-78
2021/09/16 08:26:16;;;;;;;9.13;6.35;;;;;;;;;;5052114;28;20033;-78
2021/09/16 08:28:42;;;;;;;12.63;6.90;;;;;;;;;;5055288;28;20029;-77
2021/09/16 08:31:08;;;;;;;10.18;7.40;;;;;;;;;;5056521;28;20037;-76
2021/09/16 08:33:34;;;;;;;11.52;8.63;;;;;;;;;;5047967;28;20485;-78
2021/09/16 08:35:59;;;;;;;14.63;9.25;;;;;;;;;;5055751;28;20028;-77
2021/09/16 08:38:25;;;;;;;11.27;9.52;;;;;;;;;;5056051;28;20350;-77
2021/09/16 08:40:50;;;;;;;13.75;10.88;;;;;;;;;;5055778;28;20699;-77
2021/09/16 08:43:18;;;;;;;16.38;10.35;;;;;;;;;;5055302;28;20083;-77
2021/09/16 08:45:44;;;;;;;14.52;10.60;;;;;;;;;;5053447;28;20051;-78
2021/09/16 08:48:10;;;;;;;15.63;11.40;;;;;;;;;;5054510;28;20025;-76
2021/09/16 08:50:35;;;;;;;15.13;10.95;;;;;;;;;;5051036;28;20033;-77
2021/09/16 08:53:00;;;;;;;12.88;10.90;;;;;;;;;;5053762;28;20124;-77
2021/09/16 08:55:27;;;;;;;18.17;11.98;;;;;;;;;;5055344;28;20029;-76
2021/09/16 08:58:01;;;;;;;16.77;10.73;;;;;;;;;;5055956;28;20087;-76
2021/09/16 09:00:28;;;;;;;13.90;10.73;;;;;;;;;;5049667;28;20048;-80
2021/09/16 09:02:54;;;;;;;12.18;9.88;;;;;;;;;;5051700;28;20052;-77
2021/09/16 09:05:20;;;;;;;13.80;9.45;;;;;;;;;;5051056;28;20413;-78
2021/09/16 09:07:49;;;;;;;14.02;9.02;;;;;;;;;;5052684;28;20020;-77
2021/09/16 09:10:31;;;;;;;11.65;8.57;;;;;;;;;;5052306;28;20107;-77
2021/09/16 09:12:57;;;;;;;11.48;8.23;;;;;;;;;;5052164;28;20115;-78
2021/09/16 09:15:22;;;;;;;10.15;8.25;;;;;;;;;;5051937;28;20121;-77
2021/09/16 09:18:01;;;;;;;11.57;7.75;;;;;;;;;;5052149;28;20071;-82
2021/09/16 09:20:26;;;;;;;14.88;7.60;;;;;;;;;;5031980;28;20037;-78
2021/09/16 09:22:51;;;;;;;11.90;6.97;;;;;;;;;;5028626;28;20042;-77
2021/09/16 09:25:17;;;;;;;9.55;7.30;;;;;;;;;;5031404;28;20029;-82
2021/09/16 09:27:50;;;;;;;11.52;7.35;;;;;;;;;;5031798;28;20041;-78
2021/09/16 09:30:33;;;;;;;32.25;9.35;;;;;;;;;;5048039;28;20473;-79
2021/09/16 09:33:00;;;;;;;10.70;8.48;;;;;;;;;;5051400;28;20045;-78
2021/09/16 09:35:37;;;;;;;10.40;8.57;;;;;;;;;;5051829;28;20056;-78
2021/09/16 09:38:12;;;;;;;12.80;8.57;;;;;;;;;;5049731;28;20064;-80
2021/09/16 09:40:38;;;;;;;8.77;6.60;;;;;;;;;;5051735;28;20114;-79
2021/09/16 09:43:36;;;;;;;3.70;2.30;;;;;;;;;;5051648;28;20032;-78
2021/09/16 09:46:07;;;;;;;2.97;1.92;;;;;;;;;;5039130;28;20057;-78
2021/09/16 09:48:34;;;;;;;1.67;1.20;;;;;;;;;;5050497;28;20037;-78
2021/09/16 09:50:59;;;;;;;3.63;1.67;;;;;;;;;;5051904;28;20037;-82
2021/09/16 09:53:25;;;;;;;3.60;1.23;;;;;;;;;;5052817;28;20092;-77
2021/09/16 09:55:51;;;;;;;2.33;1.60;;;;;;;;;;5052030;28;20079;-78
2021/09/16 09:58:36;;;;;;;2.50;1.48;;;;;;;;;;5051838;28;20110;-78
2021/09/16 10:01:20;;;;;;;2.20;1.48;;;;;;;;;;5051487;28;20570;-77
2021/09/16 10:03:46;;;;;;;4.32;1.80;;;;;;;;;;5051763;28;20025;-76
2021/09/16 10:06:11;;;;;;;2.88;1.70;;;;;;;;;;5051667;28;20139;-77
2021/09/16 10:08:36;;;;;;;3.22;1.60;;;;;;;;;;5052035;28;20396;-76
2021/09/16 10:11:02;;;;;;;5.35;1.95;;;;;;;;;;5051580;28;20025;-77
2021/09/16 10:13:27;;;;;;;3.20;1.50;;;;;;;;;;5051661;28;20108;-77
2021/09/16 10:15:53;;;;;;;2.33;1.50;;;;;;;;;;5051687;28;20529;-76
2021/09/16 10:18:19;;;;;;;3.22;1.80;;;;;;;;;;5051469;28;20028;-77
2021/09/16 10:20:45;;;;;;;3.70;1.55;;;;;;;;;;5051599;28;20477;-77
2021/09/16 10:23:11;;;;;;;5.03;1.38;;;;;;;;;;5052276;28;20056;-77
2021/09/16 10:25:44;;;;;;;2.55;1.55;;;;;;;;;;5051166;28;20068;-77
2021/09/16 10:28:10;;;;;;;14.10;1.88;;;;;;;;;;5051469;28;20112;-77
2021/09/16 10:30:35;;;;;;;1.80;1.30;;;;;;;;;;5051519;28;20060;-77
2021/09/16 10:33:10;;;;;;;2.50;1.45;;;;;;;;;;5050325;28;20083;-75
2021/09/16 10:35:35;;;;;;;;;;;;;;;;;;5051694;28;20082;-76
2021/09/16 10:38:27;;;;;;;1.70;1.20;;;;;;;;;;5050755;28;19909;-78
2021/09/16 10:41:10;;;;;;;1.60;0.80;;;;;;;;;;5042227;28;20278;-80
2021/09/16 10:43:36;;;;;;;2.83;0.90;;;;;;;;;;5050720;28;20027;-76
2021/09/16 10:46:20;;;;;;;2.70;1.05;;;;;;;;;;5050517;28;20135;-76
2021/09/16 10:48:45;;;;;;;2.20;1.02;;;;;;;;;;5050367;28;20025;-78
2021/09/16 10:51:10;;;;;;;5.55;1.05;;;;;;;;;;5050354;28;20033;-76
2021/09/16 10:53:36;;;;;;;2.40;1.10;;;;;;;;;;5050021;28;20424;-76
2021/09/16 10:56:03;;;;;;;1.98;1.35;;;;;;;;;;5050431;28;20021;-78
2021/09/16 10:58:28;;;;;;;3.40;1.63;;;;;;;;;;5047182;28;20039;-77
2021/09/16 11:00:54;;;;;;;4.60;1.40;;;;;;;;;;5049292;28;20025;-76
2021/09/16 11:03:19;;;;;;;2.47;1.45;;;;;;;;;;5049903;28;20021;-77
2021/09/16 11:05:47;;;;;;;1.95;1.33;;;;;;;;;;5050070;28;20041;-76
2021/09/16 11:08:13;;;;;;;3.45;1.50;;;;;;;;;;5049631;28;20040;-79
2021/09/16 11:10:38;;;;;;;5.80;2.00;;;;;;;;;;5049910;28;20442;-76
2021/09/16 11:13:24;;;;;;;3.15;1.90;;;;;;;;;;5050250;28;20524;-77
2021/09/16 11:15:51;;;;;;;4.25;1.77;;;;;;;;;;5049460;28;20119;-77
2021/09/16 11:18:18;;;;;;;3.05;1.75;;;;;;;;;;5049194;28;20047;-76
2021/09/16 11:20:48;;;;;;;2.63;1.40;;;;;;;;;;5049655;28;20059;-76
2021/09/16 11:23:14;;;;;;;3.75;1.88;;;;;;;;;;5049700;28;20027;-76
2021/09/16 11:25:44;;;;;;;4.60;2.65;;;;;;;;;;5050310;28;20040;-77
2021/09/16 11:28:09;;;;;;;4.05;2.78;;;;;;;;;;5049597;28;20028;-76
2021/09/16 11:30:35;;;;;;;5.00;3.22;;;;;;;;;;5048428;28;20025;-76
2021/09/16 11:33:01;;;;;;;4.75;2.75;;;;;;;;;;5048586;28;20056;-77
2021/09/16 11:35:26;;;;;;;5.75;3.40;;;;;;;;;;5049152;28;20046;-76
2021/09/16 11:37:52;;;;;;;5.07;3.38;;;;;;;;;;5050033;28;20036;-75
2021/09/16 11:40:24;;;;;;;5.43;3.30;;;;;;;;;;5050825;28;20037;-76
2021/09/16 11:43:06;;;;;;;5.80;3.00;;;;;;;;;;5050102;28;20481;-76
2021/09/16 11:45:32;;;;;;;4.75;2.95;;;;;;;;;;5049672;28;20124;-76
2021/09/16 11:48:04;;;;;;;3.70;2.53;;;;;;;;;;5049537;28;20044;-76
2021/09/16 11:50:31;;;;;;;5.30;2.55;;;;;;;;;;5049180;28;20025;-77
2021/09/16 11:53:01;;;;;;;5.10;1.98;;;;;;;;;;5034442;28;20466;-80
2021/09/16 11:55:28;;;;;;;4.55;2.45;;;;;;;;;;5049076;28;20021;-77
2021/09/16 11:57:57;;;;;;;3.72;2.55;;;;;;;;;;5048410;28;20028;-77
2021/09/16 12:00:23;;;;;;;4.68;2.67;;;;;;;;;;5047979;28;20064;-78
2021/09/16 12:02:48;;;;;;;5.20;2.72;;;;;;;;;;5048704;28;20477;-77
2021/09/16 12:05:34;;;;;;;7.03;3.13;;;;;;;;;;5049279;28;20025;-77
2021/09/16 12:07:59;;;;;;;;;;;;;;;;;;5028587;28;20044;-77
2021/09/16 12:10:24;;;;;;;5.60;2.87;;;;;;;;;;5048986;28;19905;-77
2021/09/16 12:12:50;;;;;;;6.13;3.10;;;;;;;;;;5048941;28;20371;-77
2021/09/16 12:15:21;;;;;;;7.20;4.05;;;;;;;;;;5048870;28;20036;-77
2021/09/16 12:17:47;;;;;;;6.43;3.30;;;;;;;;;;5048565;28;20106;-78
2021/09/16 12:20:12;;;;;;;4.97;3.00;;;;;;;;;;5048822;28;20040;-76
2021/09/16 12:22:37;;;;;;;5.35;2.75;;;;;;;;;;5049617;28;20033;-76
2021/09/16 12:25:03;;;;;;;6.35;2.55;;;;;;;;;;5048243;28;20028;-78
2021/09/16 12:27:28;;;;;;;8.40;3.08;;;;;;;;;;5048878;28;20545;-77
2021/09/16 12:29:55;;;;;;;4.80;2.85;;;;;;;;;;5049468;28;20021;-76
2021/09/16 12:32:29;;;;;;;5.47;3.00;;;;;;;;;;5049156;28;20374;-76
2021/09/16 12:34:54;;;;;;;4.20;2.90;;;;;;;;;;5049480;28;20060;-77
2021/09/16 12:37:19;;;;;;;4.50;2.88;;;;;;;;;;5049070;28;20053;-77
2021/09/16 12:39:44;;;;;;;3.88;2.60;;;;;;;;;;5049578;28;20029;-76
2021/09/16 12:42:14;;;;;;;5.82;2.75;;;;;;;;;;5049283;28;20067;-76
2021/09/16 12:44:40;;;;;;;5.03;2.78;;;;;;;;;;5048935;28;20078;-76
2021/09/16 12:47:05;;;;;;;4.32;2.95;;;;;;;;;;5047944;28;20021;-77
2021/09/16 12:49:42;;;;;;;6.07;2.70;;;;;;;;;;5049036;28;20465;-77
2021/09/16 12:52:33;;;;;;;5.47;3.67;;;;;;;;;;5049321;28;20021;-78
2021/09/16 12:55:00;;;;;;;5.78;2.65;;;;;;;;;;5047394;28;20044;-77
2021/09/16 12:57:29;;;;;;;6.55;3.28;;;;;;;;;;5049772;28;20021;-77
2021/09/16 12:59:56;;;;;;;5.68;2.40;;;;;;;;;;5049727;28;20032;-77
2021/09/16 13:02:22;;;;;;;5.75;2.80;;;;;;;;;;5049161;28;20083;-76
2021/09/16 13:04:48;;;;;;;5.40;2.35;;;;;;;;;;5048338;28;20588;-77
2021/09/16 13:07:14;;;;;;;4.10;1.80;;;;;;;;;;5049060;28;20083;-78
2021/09/16 13:09:39;;;;;;;5.68;1.70;;;;;;;;;;5049290;28;20041;-77
2021/09/16 13:12:14;;;;;;;2.35;1.40;;;;;;;;;;5049857;28;20021;-76
2021/09/16 13:14:40;;;;;;;3.25;1.90;;;;;;;;;;5051634;28;20041;-77
2021/09/16 13:17:05;;;;;;;2.72;1.30;;;;;;;;;;5053284;28;20426;-77
2021/09/16 13:19:30;;;;;;;3.67;1.77;;;;;;;;;;5052571;28;20036;-77
2021/09/16 13:21:56;;;;;;;2.83;1.38;;;;;;;;;;5052242;28;20052;-76
2021/09/16 13:24:21;;;;;;;2.67;1.60;;;;;;;;;;5052178;28;20021;-78
2021/09/16 13:26:46;;;;;;;5.35;1.80;;;;;;;;;;5052215;28;20083;-77
2021/09/16 13:29:12;;;;;;;3.17;1.30;;;;;;;;;;5052952;28;20397;-77
2021/09/16 13:31:38;;;;;;;3.80;1.65;;;;;;;;;;5052442;28;20147;-76
2021/09/16 13:34:03;;;;;;;2.97;1.70;;;;;;;;;;5051556;28;20061;-78
2021/09/16 13:36:28;;;;;;;3.85;1.60;;;;;;;;;;5052031;28;20514;-76
2021/09/16 13:38:53;;;;;;;4.32;2.10;;;;;;;;;;5048436;28;20525;-76
2021/09/16 13:41:20;;;;;;;2.92;1.63;;;;;;;;;;5051575;28;20033;-76
2021/09/16 13:43:45;;;;;;;2.08;1.67;;;;;;;;;;5051682;28;20535;-76
2021/09/16 13:46:10;;;;;;;3.40;1.70;;;;;;;;;;5049893;28;20036;-78
2021/09/16 13:48:36;;;;;;;2.78;1.40;;;;;;;;;;5051626;28;20457;-77
2021/09/16 13:51:02;;;;;;;7.53;1.95;;;;;;;;;;5050967;28;20360;-77
2021/09/16 13:53:27;;;;;;;4.18;1.48;;;;;;;;;;5051525;28;20368;-77
2021/09/16 13:55:52;;;;;;;2.45;1.67;;;;;;;;;;5051901;28;20033;-77
2021/09/16 13:58:18;;;;;;;5.18;1.92;;;;;;;;;;5051814;28;20457;-76
2021/09/16 14:00:43;;;;;;;3.67;1.70;;;;;;;;;;5049784;28;20385;-78
2021/09/16 14:03:08;;;;;;;4.70;2.53;;;;;;;;;;5050922;28;20033;-76
2021/09/16 14:05:33;;;;;;;3.90;2.10;;;;;;;;;;5050887;28;20052;-76
2021/09/16 14:07:59;;;;;;;5.68;2.30;;;;;;;;;;5051314;28;20055;-76
2021/09/16 14:10:24;;;;;;;4.35;2.17;;;;;;;;;;5050045;28;20034;-76
2021/09/16 14:12:49;;;;;;;4.50;1.80;;;;;;;;;;5049456;28;20531;-77
2021/09/16 14:15:15;;;;;;;2.50;1.40;;;;;;;;;;5050648;28;20445;-77
2021/09/16 14:17:40;;;;;;;3.83;1.75;;;;;;;;;;5049392;28;20041;-76
2021/09/16 14:20:06;;;;;;;2.33;1.25;;;;;;;;;;5051238;28;20517;-78
2021/09/16 14:22:31;;;;;;;3.40;1.30;;;;;;;;;;5050464;28;20114;-76